sensor_id;sensor_type;location;lat;lon;timestamp;pressure;altitude;pressure_sealevel;temperature;humidity
24620;BME280;12763;55.802;37.404;2023-08-17T00:00:11;100242.94;;;20.65;nan
24620;BME280;12763;55.802;37.404;2023-08-17T00:02:41;100243.88;;;20.75;nan
24620;BME280;12763;55.802;37.404;2023-08-17T00:05:07;100241.06;;;20.75;nan
24620;BME280;12763;55.802;37.404;2023-08-17T00:07:33;100246.16;;;20.78;nan
24620;BME280;12763;55.802;37.404;2023-08-17T00:09:59;100248.41;;;20.81;nan
24620;BME280;12763;55.802;37.404;2023-08-17T00:12:25;100252.94;;;20.87;nan
24620;BME280;12763;55.802;37.404;2023-08-17T00:14:52;100250.16;;;20.87;nan
24620;BME280;12763;55.802;37.404;2023-08-17T00:17:19;100252.34;;;20.85;nan
24620;BME280;12763;55.802;37.404;2023-08-17T00:19:45;100247.84;;;20.79;nan
24620;BME280;12763;55.802;37.404;2023-08-17T00:22:11;100250.88;;;20.73;nan
24620;BME280;12763;55.802;37.404;2023-08-17T00:24:36;100255.91;;;20.71;nan
24620;BME280;12763;55.802;37.404;2023-08-17T00:27:02;100246.00;;;20.63;nan
24620;BME280;12763;55.802;37.404;2023-08-17T00:29:30;100251.22;;;20.49;nan
24620;BME280;12763;55.802;37.404;2023-08-17T00:31:56;100261.50;;;20.39;nan
24620;BME280;12763;55.802;37.404;2023-08-17T00:34:22;100260.28;;;20.30;nan
24620;BME280;12763;55.802;37.404;2023-08-17T00:36:47;100260.72;;;20.22;nan
24620;BME280;12763;55.802;37.404;2023-08-17T00:39:14;100262.38;;;20.18;nan
24620;BME280;12763;55.802;37.404;2023-08-17T00:41:40;100265.81;;;20.25;nan
24620;BME280;12763;55.802;37.404;2023-08-17T00:44:06;100274.88;;;20.32;nan
24620;BME280;12763;55.802;37.404;2023-08-17T00:46:32;100267.38;;;20.37;nan
24620;BME280;12763;55.802;37.404;2023-08-17T00:48:58;100270.22;;;20.42;nan
24620;BME280;12763;55.802;37.404;2023-08-17T00:51:26;100274.16;;;20.46;nan
24620;BME280;12763;55.802;37.404;2023-08-17T00:53:54;100276.16;;;20.46;nan
24620;BME280;12763;55.802;37.404;2023-08-17T00:56:21;100273.91;;;20.48;nan
24620;BME280;12763;55.802;37.404;2023-08-17T00:58:48;100267.94;;;20.39;nan
24620;BME280;12763;55.802;37.404;2023-08-17T01:01:15;100276.03;;;20.36;nan
24620;BME280;12763;55.802;37.404;2023-08-17T01:03:41;100268.22;;;20.38;nan
24620;BME280;12763;55.802;37.404;2023-08-17T01:06:08;100274.56;;;20.28;nan
24620;BME280;12763;55.802;37.404;2023-08-17T01:08:35;100269.72;;;20.24;nan
24620;BME280;12763;55.802;37.404;2023-08-17T01:14:05;100265.63;;;20.31;nan
24620;BME280;12763;55.802;37.404;2023-08-17T01:16:42;100274.34;;;20.35;nan
24620;BME280;12763;55.802;37.404;2023-08-17T01:19:12;100269.84;;;20.34;nan
24620;BME280;12763;55.802;37.404;2023-08-17T01:21:50;100273.22;;;20.36;nan
24620;BME280;12763;55.802;37.404;2023-08-17T01:24:16;100271.56;;;20.35;nan
24620;BME280;12763;55.802;37.404;2023-08-17T01:26:42;100267.63;;;20.36;nan
24620;BME280;12763;55.802;37.404;2023-08-17T01:29:08;100277.16;;;20.35;nan
24620;BME280;12763;55.802;37.404;2023-08-17T01:31:59;100269.31;;;20.37;nan
24620;BME280;12763;55.802;37.404;2023-08-17T01:34:33;100263.69;;;20.32;nan
24620;BME280;12763;55.802;37.404;2023-08-17T01:37:00;100268.09;;;20.28;nan
24620;BME280;12763;55.802;37.404;2023-08-17T01:39:34;100265.22;;;20.23;nan
24620;BME280;12763;55.802;37.404;2023-08-17T01:42:02;100270.06;;;20.27;nan
24620;BME280;12763;55.802;37.404;2023-08-17T01:44:29;100271.69;;;20.23;nan
24620;BME280;12763;55.802;37.404;2023-08-17T01:46:55;100272.59;;;20.29;nan
24620;BME280;12763;55.802;37.404;2023-08-17T01:49:22;100272.94;;;20.32;nan
24620;BME280;12763;55.802;37.404;2023-08-17T01:51:48;100276.31;;;20.34;nan
24620;BME280;12763;55.802;37.404;2023-08-17T01:54:14;100276.84;;;20.31;nan
24620;BME280;12763;55.802;37.404;2023-08-17T01:56:40;100278.13;;;20.24;nan
24620;BME280;12763;55.802;37.404;2023-08-17T01:59:06;100275.81;;;20.16;nan
24620;BME280;12763;55.802;37.404;2023-08-17T02:01:32;100286.69;;;20.12;nan
24620;BME280;12763;55.802;37.404;2023-08-17T02:03:57;100279.09;;;20.08;nan
24620;BME280;12763;55.802;37.404;2023-08-17T02:06:28;100280.38;;;20.00;nan
24620;BME280;12763;55.802;37.404;2023-08-17T02:08:54;100269.06;;;19.90;nan
24620;BME280;12763;55.802;37.404;2023-08-17T02:11:23;100271.81;;;19.85;nan
24620;BME280;12763;55.802;37.404;2023-08-17T02:13:51;100273.63;;;19.74;nan
24620;BME280;12763;55.802;37.404;2023-08-17T02:16:18;100278.56;;;19.67;nan
24620;BME280;12763;55.802;37.404;2023-08-17T02:19:04;100284.44;;;19.66;nan
24620;BME280;12763;55.802;37.404;2023-08-17T02:21:30;100276.69;;;19.73;nan
24620;BME280;12763;55.802;37.404;2023-08-17T02:23:56;100281.31;;;19.84;nan
24620;BME280;12763;55.802;37.404;2023-08-17T02:26:23;100278.25;;;19.85;nan
24620;BME280;12763;55.802;37.404;2023-08-17T02:28:49;100278.50;;;19.84;nan
24620;BME280;12763;55.802;37.404;2023-08-17T02:31:15;100279.41;;;19.89;nan
24620;BME280;12763;55.802;37.404;2023-08-17T02:33:41;100291.56;;;20.00;nan
24620;BME280;12763;55.802;37.404;2023-08-17T02:36:07;100285.78;;;20.07;nan
24620;BME280;12763;55.802;37.404;2023-08-17T02:38:33;100285.44;;;20.03;nan
24620;BME280;12763;55.802;37.404;2023-08-17T02:40:59;100285.41;;;19.98;nan
24620;BME280;12763;55.802;37.404;2023-08-17T02:43:25;100284.03;;;20.01;nan
24620;BME280;12763;55.802;37.404;2023-08-17T02:45:51;100285.25;;;20.10;nan
24620;BME280;12763;55.802;37.404;2023-08-17T02:48:17;100284.78;;;20.18;nan
24620;BME280;12763;55.802;37.404;2023-08-17T02:50:43;100289.94;;;20.26;nan
24620;BME280;12763;55.802;37.404;2023-08-17T02:53:09;100280.44;;;20.27;nan
24620;BME280;12763;55.802;37.404;2023-08-17T02:55:36;100285.50;;;20.30;nan
24620;BME280;12763;55.802;37.404;2023-08-17T02:58:01;100293.97;;;20.35;nan
24620;BME280;12763;55.802;37.404;2023-08-17T03:00:28;100289.00;;;20.42;nan
24620;BME280;12763;55.802;37.404;2023-08-17T03:02:54;100289.88;;;20.47;nan
24620;BME280;12763;55.802;37.404;2023-08-17T03:05:20;100296.38;;;20.53;nan
24620;BME280;12763;55.802;37.404;2023-08-17T03:07:46;100292.50;;;20.54;nan
24620;BME280;12763;55.802;37.404;2023-08-17T03:10:13;100287.16;;;20.58;nan
24620;BME280;12763;55.802;37.404;2023-08-17T03:12:39;100291.69;;;20.59;nan
24620;BME280;12763;55.802;37.404;2023-08-17T03:15:06;100295.91;;;20.61;nan
24620;BME280;12763;55.802;37.404;2023-08-17T03:17:33;100294.56;;;20.69;nan
24620;BME280;12763;55.802;37.404;2023-08-17T03:19:59;100302.47;;;20.77;nan
24620;BME280;12763;55.802;37.404;2023-08-17T03:22:26;100295.81;;;20.83;nan
24620;BME280;12763;55.802;37.404;2023-08-17T03:24:55;100291.06;;;20.83;nan
24620;BME280;12763;55.802;37.404;2023-08-17T03:27:21;100291.09;;;20.88;nan
24620;BME280;12763;55.802;37.404;2023-08-17T03:29:47;100288.31;;;20.93;nan
24620;BME280;12763;55.802;37.404;2023-08-17T03:32:13;100290.84;;;20.90;nan
24620;BME280;12763;55.802;37.404;2023-08-17T03:34:39;100291.13;;;20.93;nan
24620;BME280;12763;55.802;37.404;2023-08-17T03:37:06;100286.19;;;21.05;nan
24620;BME280;12763;55.802;37.404;2023-08-17T03:39:32;100284.84;;;21.13;nan
24620;BME280;12763;55.802;37.404;2023-08-17T03:41:57;100284.34;;;21.21;nan
24620;BME280;12763;55.802;37.404;2023-08-17T03:44:23;100282.44;;;21.27;nan
24620;BME280;12763;55.802;37.404;2023-08-17T03:46:49;100282.47;;;21.32;nan
24620;BME280;12763;55.802;37.404;2023-08-17T03:49:15;100285.31;;;21.37;nan
24620;BME280;12763;55.802;37.404;2023-08-17T03:51:42;100277.78;;;21.42;nan
24620;BME280;12763;55.802;37.404;2023-08-17T03:54:08;100274.44;;;21.50;nan
24620;BME280;12763;55.802;37.404;2023-08-17T03:56:34;100277.56;;;21.54;nan
24620;BME280;12763;55.802;37.404;2023-08-17T03:59:00;100276.41;;;21.55;nan
24620;BME280;12763;55.802;37.404;2023-08-17T04:01:25;100276.44;;;21.60;nan
24620;BME280;12763;55.802;37.404;2023-08-17T04:03:51;100276.50;;;21.70;nan
24620;BME280;12763;55.802;37.404;2023-08-17T04:06:17;100278.50;;;21.80;nan
24620;BME280;12763;55.802;37.404;2023-08-17T04:08:43;100279.97;;;21.87;nan
24620;BME280;12763;55.802;37.404;2023-08-17T04:11:09;100287.03;;;21.95;nan
24620;BME280;12763;55.802;37.404;2023-08-17T04:13:35;100289.31;;;22.03;nan
24620;BME280;12763;55.802;37.404;2023-08-17T04:16:00;100285.66;;;22.07;nan
24620;BME280;12763;55.802;37.404;2023-08-17T04:18:26;100286.75;;;22.01;nan
24620;BME280;12763;55.802;37.404;2023-08-17T04:20:52;100289.88;;;22.05;nan
24620;BME280;12763;55.802;37.404;2023-08-17T04:23:18;100291.03;;;22.19;nan
24620;BME280;12763;55.802;37.404;2023-08-17T04:25:46;100289.41;;;22.28;nan
24620;BME280;12763;55.802;37.404;2023-08-17T04:28:12;100291.09;;;22.34;nan
24620;BME280;12763;55.802;37.404;2023-08-17T04:30:39;100289.16;;;22.45;nan
24620;BME280;12763;55.802;37.404;2023-08-17T04:33:06;100290.56;;;22.57;nan
24620;BME280;12763;55.802;37.404;2023-08-17T04:35:33;100287.50;;;22.69;nan
24620;BME280;12763;55.802;37.404;2023-08-17T04:38:00;100295.94;;;22.79;nan
24620;BME280;12763;55.802;37.404;2023-08-17T04:40:26;100298.50;;;22.86;nan
24620;BME280;12763;55.802;37.404;2023-08-17T04:42:53;100288.63;;;22.93;nan
24620;BME280;12763;55.802;37.404;2023-08-17T04:45:21;100294.00;;;23.00;nan
24620;BME280;12763;55.802;37.404;2023-08-17T04:47:48;100288.09;;;23.11;nan
24620;BME280;12763;55.802;37.404;2023-08-17T04:50:15;100287.19;;;23.26;nan
24620;BME280;12763;55.802;37.404;2023-08-17T04:52:43;100286.91;;;23.43;nan
24620;BME280;12763;55.802;37.404;2023-08-17T04:55:10;100281.00;;;23.49;nan
24620;BME280;12763;55.802;37.404;2023-08-17T04:57:36;100292.81;;;23.51;nan
24620;BME280;12763;55.802;37.404;2023-08-17T05:00:02;100295.03;;;23.59;nan
24620;BME280;12763;55.802;37.404;2023-08-17T05:02:31;100296.72;;;23.65;nan
24620;BME280;12763;55.802;37.404;2023-08-17T05:04:57;100291.94;;;23.66;nan
24620;BME280;12763;55.802;37.404;2023-08-17T05:07:24;100295.31;;;23.68;nan
24620;BME280;12763;55.802;37.404;2023-08-17T05:09:52;100301.47;;;23.70;nan
24620;BME280;12763;55.802;37.404;2023-08-17T05:12:19;100304.00;;;23.76;nan
24620;BME280;12763;55.802;37.404;2023-08-17T05:14:45;100298.91;;;23.83;nan
24620;BME280;12763;55.802;37.404;2023-08-17T05:17:11;100298.56;;;24.00;nan
24620;BME280;12763;55.802;37.404;2023-08-17T05:19:37;100294.88;;;24.10;nan
24620;BME280;12763;55.802;37.404;2023-08-17T05:22:10;100298.25;;;24.12;nan
24620;BME280;12763;55.802;37.404;2023-08-17T05:24:36;100294.78;;;24.25;nan
24620;BME280;12763;55.802;37.404;2023-08-17T05:27:02;100292.22;;;24.33;nan
24620;BME280;12763;55.802;37.404;2023-08-17T05:29:28;100293.25;;;24.47;nan
24620;BME280;12763;55.802;37.404;2023-08-17T05:31:54;100286.44;;;24.53;nan
24620;BME280;12763;55.802;37.404;2023-08-17T05:34:20;100292.56;;;24.66;nan
24620;BME280;12763;55.802;37.404;2023-08-17T05:36:46;100297.63;;;24.69;nan
24620;BME280;12763;55.802;37.404;2023-08-17T05:39:12;100291.41;;;24.67;nan
24620;BME280;12763;55.802;37.404;2023-08-17T05:41:38;100287.47;;;24.68;nan
24620;BME280;12763;55.802;37.404;2023-08-17T05:44:04;100291.41;;;24.67;nan
24620;BME280;12763;55.802;37.404;2023-08-17T05:46:33;100290.84;;;24.70;nan
24620;BME280;12763;55.802;37.404;2023-08-17T05:49:00;100294.19;;;24.82;nan
24620;BME280;12763;55.802;37.404;2023-08-17T05:51:26;100297.00;;;24.82;nan
24620;BME280;12763;55.802;37.404;2023-08-17T05:53:52;100299.16;;;24.95;nan
24620;BME280;12763;55.802;37.404;2023-08-17T05:56:18;100297.38;;;25.04;nan
24620;BME280;12763;55.802;37.404;2023-08-17T05:58:43;100292.47;;;25.15;nan
24620;BME280;12763;55.802;37.404;2023-08-17T06:01:10;100288.53;;;25.16;nan
24620;BME280;12763;55.802;37.404;2023-08-17T06:03:37;100288.94;;;25.28;nan
24620;BME280;12763;55.802;37.404;2023-08-17T06:06:03;100283.84;;;25.30;nan
24620;BME280;12763;55.802;37.404;2023-08-17T06:08:31;100291.97;;;25.36;nan
24620;BME280;12763;55.802;37.404;2023-08-17T06:10:57;100290.25;;;25.40;nan
24620;BME280;12763;55.802;37.404;2023-08-17T06:13:23;100294.69;;;25.46;nan
24620;BME280;12763;55.802;37.404;2023-08-17T06:15:49;100286.94;;;25.62;nan
24620;BME280;12763;55.802;37.404;2023-08-17T06:18:15;100287.66;;;25.49;nan
24620;BME280;12763;55.802;37.404;2023-08-17T06:20:41;100290.63;;;25.57;nan
24620;BME280;12763;55.802;37.404;2023-08-17T06:23:07;100287.19;;;25.65;nan
24620;BME280;12763;55.802;37.404;2023-08-17T06:25:33;100288.00;;;25.66;nan
24620;BME280;12763;55.802;37.404;2023-08-17T06:28:00;100292.47;;;25.48;nan
24620;BME280;12763;55.802;37.404;2023-08-17T06:30:26;100284.59;;;25.40;nan
24620;BME280;12763;55.802;37.404;2023-08-17T06:32:52;100280.88;;;25.45;nan
24620;BME280;12763;55.802;37.404;2023-08-17T06:35:18;100287.28;;;25.55;nan
24620;BME280;12763;55.802;37.404;2023-08-17T06:37:44;100280.44;;;25.61;nan
24620;BME280;12763;55.802;37.404;2023-08-17T06:40:10;100287.66;;;25.73;nan
24620;BME280;12763;55.802;37.404;2023-08-17T06:42:36;100281.09;;;25.77;nan
24620;BME280;12763;55.802;37.404;2023-08-17T06:45:03;100283.22;;;25.90;nan
24620;BME280;12763;55.802;37.404;2023-08-17T06:47:33;100284.53;;;25.98;nan
24620;BME280;12763;55.802;37.404;2023-08-17T06:50:00;100277.25;;;25.92;nan
24620;BME280;12763;55.802;37.404;2023-08-17T06:52:26;100278.16;;;25.63;nan
24620;BME280;12763;55.802;37.404;2023-08-17T06:54:52;100287.53;;;25.59;nan
24620;BME280;12763;55.802;37.404;2023-08-17T06:57:18;100277.44;;;25.77;nan
24620;BME280;12763;55.802;37.404;2023-08-17T06:59:44;100276.53;;;25.81;nan
24620;BME280;12763;55.802;37.404;2023-08-17T07:02:13;100283.44;;;25.94;nan
24620;BME280;12763;55.802;37.404;2023-08-17T07:04:39;100272.78;;;26.09;nan
24620;BME280;12763;55.802;37.404;2023-08-17T07:07:05;100287.28;;;26.03;nan
24620;BME280;12763;55.802;37.404;2023-08-17T07:09:31;100272.00;;;26.04;nan
24620;BME280;12763;55.802;37.404;2023-08-17T07:11:57;100283.91;;;26.01;nan
24620;BME280;12763;55.802;37.404;2023-08-17T07:14:23;100278.75;;;25.84;nan
24620;BME280;12763;55.802;37.404;2023-08-17T07:16:49;100280.06;;;25.92;nan
24620;BME280;12763;55.802;37.404;2023-08-17T07:19:15;100276.81;;;26.03;nan
24620;BME280;12763;55.802;37.404;2023-08-17T07:21:41;100280.41;;;26.09;nan
24620;BME280;12763;55.802;37.404;2023-08-17T07:24:14;100280.53;;;26.22;nan
24620;BME280;12763;55.802;37.404;2023-08-17T07:26:41;100269.47;;;26.26;nan
24620;BME280;12763;55.802;37.404;2023-08-17T07:29:08;100273.44;;;26.25;nan
24620;BME280;12763;55.802;37.404;2023-08-17T07:31:34;100272.66;;;26.38;nan
24620;BME280;12763;55.802;37.404;2023-08-17T07:34:06;100267.50;;;26.45;nan
24620;BME280;12763;55.802;37.404;2023-08-17T07:36:33;100273.16;;;26.45;nan
24620;BME280;12763;55.802;37.404;2023-08-17T07:38:59;100270.75;;;26.34;nan
24620;BME280;12763;55.802;37.404;2023-08-17T07:41:26;100273.88;;;26.32;nan
24620;BME280;12763;55.802;37.404;2023-08-17T07:43:52;100274.13;;;26.17;nan
24620;BME280;12763;55.802;37.404;2023-08-17T07:46:18;100270.84;;;26.29;nan
24620;BME280;12763;55.802;37.404;2023-08-17T07:48:44;100266.81;;;26.35;nan
24620;BME280;12763;55.802;37.404;2023-08-17T07:51:10;100265.97;;;26.34;nan
24620;BME280;12763;55.802;37.404;2023-08-17T07:53:36;100267.63;;;26.54;nan
24620;BME280;12763;55.802;37.404;2023-08-17T07:56:02;100268.84;;;26.66;nan
24620;BME280;12763;55.802;37.404;2023-08-17T07:58:28;100274.50;;;26.66;nan
24620;BME280;12763;55.802;37.404;2023-08-17T08:00:53;100271.06;;;26.69;nan
24620;BME280;12763;55.802;37.404;2023-08-17T08:03:19;100273.41;;;26.62;nan
24620;BME280;12763;55.802;37.404;2023-08-17T08:05:45;100275.97;;;26.64;nan
24620;BME280;12763;55.802;37.404;2023-08-17T08:08:11;100272.59;;;26.62;nan
24620;BME280;12763;55.802;37.404;2023-08-17T08:10:37;100275.19;;;26.77;nan
24620;BME280;12763;55.802;37.404;2023-08-17T08:13:03;100282.97;;;27.04;nan
24620;BME280;12763;55.802;37.404;2023-08-17T08:15:29;100271.38;;;27.19;nan
24620;BME280;12763;55.802;37.404;2023-08-17T08:17:58;100268.63;;;27.14;nan
24620;BME280;12763;55.802;37.404;2023-08-17T08:20:24;100263.31;;;27.26;nan
24620;BME280;12763;55.802;37.404;2023-08-17T08:22:50;100263.56;;;26.97;nan
24620;BME280;12763;55.802;37.404;2023-08-17T08:25:16;100267.53;;;26.96;nan
24620;BME280;12763;55.802;37.404;2023-08-17T08:27:42;100266.66;;;27.14;nan
24620;BME280;12763;55.802;37.404;2023-08-17T08:30:08;100261.72;;;27.20;nan
24620;BME280;12763;55.802;37.404;2023-08-17T08:32:34;100260.28;;;27.36;nan
24620;BME280;12763;55.802;37.404;2023-08-17T08:35:00;100259.09;;;27.42;nan
24620;BME280;12763;55.802;37.404;2023-08-17T08:37:26;100257.56;;;27.31;nan
24620;BME280;12763;55.802;37.404;2023-08-17T08:39:52;100256.69;;;27.17;nan
24620;BME280;12763;55.802;37.404;2023-08-17T08:42:20;100251.91;;;27.31;nan
24620;BME280;12763;55.802;37.404;2023-08-17T08:44:47;100256.53;;;27.40;nan
24620;BME280;12763;55.802;37.404;2023-08-17T08:47:13;100254.63;;;27.36;nan
24620;BME280;12763;55.802;37.404;2023-08-17T08:49:40;100251.28;;;27.34;nan
24620;BME280;12763;55.802;37.404;2023-08-17T08:52:14;100244.94;;;27.37;nan
24620;BME280;12763;55.802;37.404;2023-08-17T08:54:44;100245.03;;;27.51;nan
24620;BME280;12763;55.802;37.404;2023-08-17T08:57:13;100249.63;;;27.60;nan
24620;BME280;12763;55.802;37.404;2023-08-17T08:59:42;100251.75;;;27.55;nan
24620;BME280;12763;55.802;37.404;2023-08-17T09:02:14;100243.13;;;27.60;nan
24620;BME280;12763;55.802;37.404;2023-08-17T09:04:43;100244.38;;;27.54;nan
24620;BME280;12763;55.802;37.404;2023-08-17T09:07:11;100245.03;;;27.51;nan
24620;BME280;12763;55.802;37.404;2023-08-17T09:09:38;100241.66;;;27.62;nan
24620;BME280;12763;55.802;37.404;2023-08-17T09:12:07;100245.13;;;27.59;nan
24620;BME280;12763;55.802;37.404;2023-08-17T09:14:35;100234.84;;;27.77;nan
24620;BME280;12763;55.802;37.404;2023-08-17T09:17:06;100239.66;;;27.90;nan
24620;BME280;12763;55.802;37.404;2023-08-17T09:19:32;100238.09;;;27.97;nan
24620;BME280;12763;55.802;37.404;2023-08-17T09:22:01;100237.03;;;27.93;nan
24620;BME280;12763;55.802;37.404;2023-08-17T09:24:37;100241.25;;;27.82;nan
24620;BME280;12763;55.802;37.404;2023-08-17T09:27:03;100240.50;;;28.04;nan
24620;BME280;12763;55.802;37.404;2023-08-17T09:29:29;100237.66;;;28.18;nan
24620;BME280;12763;55.802;37.404;2023-08-17T09:32:07;100241.75;;;28.12;nan
24620;BME280;12763;55.802;37.404;2023-08-17T09:34:33;100250.19;;;28.17;nan
24620;BME280;12763;55.802;37.404;2023-08-17T09:37:03;100240.25;;;28.41;nan
24620;BME280;12763;55.802;37.404;2023-08-17T09:39:30;100242.09;;;28.46;nan
24620;BME280;12763;55.802;37.404;2023-08-17T09:41:56;100238.28;;;28.64;nan
24620;BME280;12763;55.802;37.404;2023-08-17T09:44:23;100238.69;;;28.93;nan
24620;BME280;12763;55.802;37.404;2023-08-17T09:46:48;100233.19;;;29.19;nan
24620;BME280;12763;55.802;37.404;2023-08-17T09:49:14;100238.06;;;29.49;nan
24620;BME280;12763;55.802;37.404;2023-08-17T09:51:43;100234.09;;;29.67;nan
24620;BME280;12763;55.802;37.404;2023-08-17T09:54:20;100238.94;;;29.67;nan
24620;BME280;12763;55.802;37.404;2023-08-17T09:56:49;100247.13;;;29.60;nan
24620;BME280;12763;55.802;37.404;2023-08-17T09:59:16;100244.38;;;29.77;nan
24620;BME280;12763;55.802;37.404;2023-08-17T10:01:42;100239.41;;;29.91;nan
24620;BME280;12763;55.802;37.404;2023-08-17T10:04:12;100245.34;;;30.20;nan
24620;BME280;12763;55.802;37.404;2023-08-17T10:06:41;100235.00;;;30.42;nan
24620;BME280;12763;55.802;37.404;2023-08-17T10:09:10;100233.69;;;30.65;nan
24620;BME280;12763;55.802;37.404;2023-08-17T10:11:39;100229.34;;;30.93;nan
24620;BME280;12763;55.802;37.404;2023-08-17T10:14:20;100229.97;;;31.07;nan
24620;BME280;12763;55.802;37.404;2023-08-17T10:16:57;100231.28;;;31.18;nan
24620;BME280;12763;55.802;37.404;2023-08-17T10:19:47;100232.69;;;30.95;nan
24620;BME280;12763;55.802;37.404;2023-08-17T10:22:26;100236.31;;;31.21;nan
24620;BME280;12763;55.802;37.404;2023-08-17T10:24:56;100232.22;;;31.57;nan
24620;BME280;12763;55.802;37.404;2023-08-17T10:27:24;100229.31;;;31.65;nan
24620;BME280;12763;55.802;37.404;2023-08-17T10:29:51;100235.25;;;31.52;nan
24620;BME280;12763;55.802;37.404;2023-08-17T10:32:18;100233.00;;;31.66;nan
24620;BME280;12763;55.802;37.404;2023-08-17T10:34:44;100224.91;;;32.14;nan
24620;BME280;12763;55.802;37.404;2023-08-17T10:37:11;100221.72;;;32.36;nan
24620;BME280;12763;55.802;37.404;2023-08-17T10:39:45;100227.88;;;32.68;nan
24620;BME280;12763;55.802;37.404;2023-08-17T10:42:11;100223.13;;;33.13;nan
24620;BME280;12763;55.802;37.404;2023-08-17T10:44:46;100229.59;;;33.22;nan
24620;BME280;12763;55.802;37.404;2023-08-17T10:47:32;100226.69;;;33.67;nan
24620;BME280;12763;55.802;37.404;2023-08-17T10:50:21;100219.41;;;34.42;nan
24620;BME280;12763;55.802;37.404;2023-08-17T10:52:49;100224.88;;;34.71;nan
24620;BME280;12763;55.802;37.404;2023-08-17T10:55:16;100217.88;;;35.40;nan
24620;BME280;12763;55.802;37.404;2023-08-17T10:57:44;100212.66;;;35.30;nan
24620;BME280;12763;55.802;37.404;2023-08-17T11:00:22;100215.97;;;35.60;nan
24620;BME280;12763;55.802;37.404;2023-08-17T11:03:03;100214.13;;;35.99;nan
24620;BME280;12763;55.802;37.404;2023-08-17T11:05:37;100217.94;;;36.53;nan
24620;BME280;12763;55.802;37.404;2023-08-17T11:08:04;100206.75;;;36.67;nan
24620;BME280;12763;55.802;37.404;2023-08-17T11:10:30;100216.75;;;36.92;nan
24620;BME280;12763;55.802;37.404;2023-08-17T11:12:57;100211.75;;;36.89;nan
24620;BME280;12763;55.802;37.404;2023-08-17T11:15:42;100204.69;;;37.25;nan
24620;BME280;12763;55.802;37.404;2023-08-17T11:18:10;100201.91;;;36.90;nan
24620;BME280;12763;55.802;37.404;2023-08-17T11:20:37;100203.09;;;37.47;nan
24620;BME280;12763;55.802;37.404;2023-08-17T11:23:04;100204.47;;;37.56;nan
24620;BME280;12763;55.802;37.404;2023-08-17T11:25:32;100196.81;;;37.64;nan
24620;BME280;12763;55.802;37.404;2023-08-17T11:27:59;100205.31;;;37.57;nan
24620;BME280;12763;55.802;37.404;2023-08-17T11:30:25;100205.38;;;37.19;nan
24620;BME280;12763;55.802;37.404;2023-08-17T11:32:52;100196.09;;;37.06;nan
24620;BME280;12763;55.802;37.404;2023-08-17T11:35:19;100190.34;;;37.48;nan
24620;BME280;12763;55.802;37.404;2023-08-17T11:37:45;100186.31;;;37.75;nan
24620;BME280;12763;55.802;37.404;2023-08-17T11:40:11;100193.09;;;37.86;nan
24620;BME280;12763;55.802;37.404;2023-08-17T11:42:38;100190.34;;;37.93;nan
24620;BME280;12763;55.802;37.404;2023-08-17T11:45:05;100186.63;;;37.70;nan
24620;BME280;12763;55.802;37.404;2023-08-17T11:47:32;100189.78;;;37.20;nan
24620;BME280;12763;55.802;37.404;2023-08-17T11:49:59;100184.88;;;37.20;nan
24620;BME280;12763;55.802;37.404;2023-08-17T11:52:26;100179.44;;;37.38;nan
24620;BME280;12763;55.802;37.404;2023-08-17T11:54:55;100175.81;;;37.41;nan
24620;BME280;12763;55.802;37.404;2023-08-17T11:57:22;100174.13;;;37.40;nan
24620;BME280;12763;55.802;37.404;2023-08-17T11:59:47;100170.09;;;37.63;nan
24620;BME280;12763;55.802;37.404;2023-08-17T12:02:13;100174.84;;;37.79;nan
24620;BME280;12763;55.802;37.404;2023-08-17T12:04:39;100171.94;;;37.75;nan
24620;BME280;12763;55.802;37.404;2023-08-17T12:07:05;100170.97;;;37.67;nan
24620;BME280;12763;55.802;37.404;2023-08-17T12:09:34;100169.53;;;38.03;nan
24620;BME280;12763;55.802;37.404;2023-08-17T12:12:01;100164.75;;;37.88;nan
24620;BME280;12763;55.802;37.404;2023-08-17T12:14:27;100170.09;;;38.12;nan
24620;BME280;12763;55.802;37.404;2023-08-17T12:16:54;100161.53;;;38.46;nan
24620;BME280;12763;55.802;37.404;2023-08-17T12:19:20;100154.22;;;38.52;nan
24620;BME280;12763;55.802;37.404;2023-08-17T12:21:48;100151.94;;;38.68;nan
24620;BME280;12763;55.802;37.404;2023-08-17T12:24:14;100157.19;;;38.89;nan
24620;BME280;12763;55.802;37.404;2023-08-17T12:26:43;100145.91;;;38.47;nan
24620;BME280;12763;55.802;37.404;2023-08-17T12:29:09;100146.63;;;39.03;nan
24620;BME280;12763;55.802;37.404;2023-08-17T12:31:35;100144.31;;;39.19;nan
24620;BME280;12763;55.802;37.404;2023-08-17T12:34:01;100145.47;;;39.11;nan
24620;BME280;12763;55.802;37.404;2023-08-17T12:36:27;100145.31;;;38.97;nan
24620;BME280;12763;55.802;37.404;2023-08-17T12:38:54;100138.50;;;39.12;nan
24620;BME280;12763;55.802;37.404;2023-08-17T12:41:20;100134.44;;;38.80;nan
24620;BME280;12763;55.802;37.404;2023-08-17T12:43:46;100137.22;;;38.43;nan
24620;BME280;12763;55.802;37.404;2023-08-17T12:46:12;100132.38;;;38.51;nan
24620;BME280;12763;55.802;37.404;2023-08-17T12:48:38;100133.69;;;38.57;nan
24620;BME280;12763;55.802;37.404;2023-08-17T12:51:04;100121.88;;;38.99;nan
24620;BME280;12763;55.802;37.404;2023-08-17T12:53:30;100131.41;;;39.06;nan
24620;BME280;12763;55.802;37.404;2023-08-17T12:55:56;100133.50;;;39.09;nan
24620;BME280;12763;55.802;37.404;2023-08-17T12:58:22;100132.91;;;39.26;nan
24620;BME280;12763;55.802;37.404;2023-08-17T13:00:48;100134.59;;;39.31;nan
24620;BME280;12763;55.802;37.404;2023-08-17T13:03:19;100134.53;;;39.27;nan